Time;durP1;ratioP1;P1;durP2;ratioP2;P2;SDS_P1;SDS_P2;PMS_P1;PMS_P2;Temp;Humidity;BMP_temperature;BMP_pressure;BME280_temperature;BME280_humidity;BME280_pressure;Samples;Min_cycle;Max_cycle;Signal;HPM_P1;HPM_P2
2023/08/05 00:00:53;;;;;;;6.22;4.85;;;;;;;;;;5112294;28;20020;-70
2023/08/05 00:03:19;;;;;;;9.38;5.68;;;;;;;;;;5113402;28;20038;-71
2023/08/05 00:05:45;;;;;;;10.65;5.90;;;;;;;;;;5112620;28;20455;-70
2023/08/05 00:08:11;;;;;;;7.03;4.70;;;;;;;;;;5113327;28;20039;-71
2023/08/05 00:10:41;;;;;;;8.57;5.30;;;;;;;;;;5112970;28;20054;-70
2023/08/05 00:13:07;;;;;;;;;;;;;;;;;;5113767;28;20027;-71
2023/08/05 00:15:33;;;;;;;8.10;4.85;;;;;;;;;;5112952;28;19911;-71
2023/08/05 00:17:59;;;;;;;6.50;4.68;;;;;;;;;;5111808;28;20019;-70
2023/08/05 00:20:25;;;;;;;9.20;5.60;;;;;;;;;;5112702;28;20016;-71
2023/08/05 00:22:51;;;;;;;5.63;5.07;;;;;;;;;;5112099;28;20020;-70
2023/08/05 00:25:17;;;;;;;8.18;5.75;;;;;;;;;;5112649;28;20075;-71
2023/08/05 00:27:43;;;;;;;8.35;5.15;;;;;;;;;;5123958;27;20039;-70
2023/08/05 00:30:09;;;;;;;11.00;5.30;;;;;;;;;;5133515;27;20094;-71
2023/08/05 00:32:36;;;;;;;8.85;5.72;;;;;;;;;;5133171;27;20369;-71
2023/08/05 00:35:06;;;;;;;6.68;4.78;;;;;;;;;;5132562;27;20062;-71
2023/08/05 00:37:32;;;;;;;10.13;4.88;;;;;;;;;;5133822;27;20027;-71
2023/08/05 00:39:58;;;;;;;10.85;5.28;;;;;;;;;;5132723;27;20034;-71
2023/08/05 00:42:26;;;;;;;6.70;5.28;;;;;;;;;;5138959;27;20080;-71
2023/08/05 00:44:52;;;;;;;9.23;5.20;;;;;;;;;;5137001;28;20039;-71
2023/08/05 00:47:18;;;;;;;8.10;4.60;;;;;;;;;;5136023;28;20028;-71
2023/08/05 00:49:48;;;;;;;7.63;5.00;;;;;;;;;;5142478;27;20045;-71
2023/08/05 00:52:17;;;;;;;6.10;4.63;;;;;;;;;;5144767;27;20086;-71
2023/08/05 00:54:44;;;;;;;7.47;4.75;;;;;;;;;;5141158;27;20030;-70
2023/08/05 00:57:11;;;;;;;8.10;4.60;;;;;;;;;;5137290;27;20467;-71
2023/08/05 00:59:37;;;;;;;5.78;4.25;;;;;;;;;;5118955;27;20413;-72
2023/08/05 01:02:03;;;;;;;12.82;4.80;;;;;;;;;;5118299;27;20019;-72
2023/08/05 01:04:29;;;;;;;6.47;4.85;;;;;;;;;;5137010;27;20027;-71
2023/08/05 01:06:56;;;;;;;5.93;4.28;;;;;;;;;;5118005;27;20367;-71
2023/08/05 01:09:22;;;;;;;6.60;4.60;;;;;;;;;;5137020;27;20023;-71
2023/08/05 01:11:48;;;;;;;7.05;4.72;;;;;;;;;;5136450;27;20026;-72
2023/08/05 01:14:14;;;;;;;11.30;4.95;;;16.20;99.90;;;;;;5136759;27;20023;-71
2023/08/05 01:16:40;;;;;;;6.63;4.68;;;16.10;99.90;;;;;;5137371;27;20462;-71
2023/08/05 01:19:13;;;;;;;7.93;4.78;;;16.00;99.90;;;;;;5136429;27;20106;-71
2023/08/05 01:21:49;;;;;;;7.35;4.47;;;16.00;99.90;;;;;;5137028;27;20023;-72
2023/08/05 01:24:41;;;;;;;7.97;5.10;;;16.00;99.90;;;;;;5136942;27;20041;-71
2023/08/05 01:27:09;;;;;;;5.07;4.35;;;16.00;99.90;;;;;;5128698;27;20043;-71
2023/08/05 01:29:34;;;;;;;6.05;4.45;;;15.90;99.90;;;;;;5116145;28;20384;-72
2023/08/05 01:32:00;;;;;;;6.00;4.20;;;15.90;99.90;;;;;;5097437;28;20024;-71
2023/08/05 01:34:26;;;;;;;6.35;5.03;;;15.90;99.90;;;;;;5115947;28;20039;-71
2023/08/05 01:36:52;;;;;;;5.88;3.70;;;16.00;99.90;;;;;;5115567;28;20024;-72
2023/08/05 01:39:17;;;;;;;9.88;5.03;;;16.00;99.90;;;;;;5115935;28;20047;-72
2023/08/05 01:41:43;;;;;;;7.10;4.22;;;15.90;99.90;;;;;;5115694;28;20027;-71
2023/08/05 01:44:08;;;;;;;5.45;3.78;;;15.90;99.90;;;;;;5115424;28;20031;-71
2023/08/05 01:46:34;;;;;;;5.88;4.22;;;15.90;99.90;;;;;;5115781;28;20035;-71
2023/08/05 01:48:59;;;;;;;6.25;4.60;;;15.90;99.90;;;;;;5114894;28;20066;-72
2023/08/05 01:51:25;;;;;;;8.35;4.50;;;15.90;99.90;;;;;;5115959;28;20430;-73
2023/08/05 01:53:51;;;;;;;5.05;4.28;;;15.90;99.90;;;;;;5114925;28;20114;-71
2023/08/05 01:56:16;;;;;;;6.80;5.28;;;15.90;99.90;;;;;;5115932;28;20035;-72
2023/08/05 01:58:42;;;;;;;5.18;4.50;;;16.00;99.90;;;;;;5115370;28;20435;-72
2023/08/05 02:01:07;;;;;;;6.60;3.85;;;16.00;99.90;;;;;;5095533;28;20024;-72
2023/08/05 02:03:33;;;;;;;7.03;4.88;;;15.90;99.90;;;;;;5115300;28;20499;-71
2023/08/05 02:05:58;;;;;;;6.22;4.47;;;15.90;99.90;;;;;;5114342;28;20031;-72
2023/08/05 02:08:24;;;;;;;7.18;4.47;;;15.90;99.90;;;;;;5115670;28;20479;-72
2023/08/05 02:10:50;;;;;;;6.60;4.72;;;15.80;99.90;;;;;;5114200;28;20489;-71
2023/08/05 02:13:16;;;;;;;7.47;4.82;;;15.80;99.90;;;;;;5115411;28;20030;-72
2023/08/05 02:15:41;;;;;;;9.30;4.88;;;15.80;99.90;;;;;;5115392;28;20024;-72
2023/08/05 02:18:08;;;;;;;4.65;4.25;;;15.90;99.90;;;;;;5114513;28;20390;-72
2023/08/05 02:20:34;;;;;;;5.43;4.80;;;15.90;99.90;;;;;;5115097;28;20088;-71
2023/08/05 02:23:00;;;;;;;6.82;4.38;;;15.90;99.90;;;;;;5114020;28;20020;-70
2023/08/05 02:25:26;;;;;;;6.95;5.10;;;15.80;99.90;;;;;;5115098;28;20107;-70
2023/08/05 02:27:51;;;;;;;10.18;4.95;;;15.80;99.90;;;;;;5127429;27;20391;-70
2023/08/05 02:30:17;;;;;;;7.65;4.70;;;15.70;99.90;;;;;;5135704;27;20027;-71
2023/08/05 02:32:43;;;;;;;5.90;5.30;;;15.70;99.90;;;;;;5135491;27;20031;-71
2023/08/05 02:35:08;;;;;;;6.82;4.88;;;15.70;99.90;;;;;;5134715;27;20058;-71
2023/08/05 02:37:34;;;;;;;5.65;4.55;;;15.60;99.90;;;;;;5135139;27;20055;-71
2023/08/05 02:39:59;;;;;;;9.70;5.03;;;15.50;99.90;;;;;;5134783;27;20512;-71
2023/08/05 02:42:25;;;;;;;10.98;5.72;;;15.40;99.90;;;;;;5135266;27;20432;-71
2023/08/05 02:44:50;;;;;;;9.15;5.22;;;15.40;99.90;;;;;;5134443;27;20035;-70
2023/08/05 02:47:16;;;;;;;7.60;5.13;;;15.40;99.90;;;;;;5135217;27;20019;-70
2023/08/05 02:49:42;;;;;;;10.77;6.00;;;15.40;99.90;;;;;;5116666;27;20031;-71
2023/08/05 02:52:08;;;;;;;7.00;4.80;;;15.20;99.90;;;;;;5135251;27;20168;-70
2023/08/05 02:54:33;;;;;;;10.00;5.68;;;15.20;99.90;;;;;;5135401;27;20477;-71
2023/08/05 02:56:59;;;;;;;8.48;4.97;;;15.10;99.90;;;;;;5133899;27;20376;-72
2023/08/05 02:59:24;;;;;;;7.65;5.75;;;15.10;99.90;;;;;;5135035;27;20031;-71
2023/08/05 03:01:50;;;;;;;6.65;5.20;;;15.00;99.90;;;;;;5134018;27;20379;-71
2023/08/05 03:04:16;;;;;;;11.85;5.68;;;15.00;99.90;;;;;;5135141;27;20035;-71
2023/08/05 03:06:41;;;;;;;8.57;5.50;;;15.00;99.90;;;;;;5134850;27;20058;-72
2023/08/05 03:09:07;;;;;;;8.50;5.28;;;15.00;99.90;;;;;;5134005;27;20253;-72
2023/08/05 03:11:32;;;;;;;10.60;5.85;;;15.00;99.90;;;;;;5134773;27;20023;-72
2023/08/05 03:13:58;;;;;;;11.77;6.10;;;15.00;99.90;;;;;;5133955;27;20361;-71
2023/08/05 03:16:24;;;;;;;8.57;5.13;;;15.00;99.90;;;;;;5134584;27;20102;-71
2023/08/05 03:18:49;;;;;;;9.35;6.05;;;15.00;99.90;;;;;;5134474;27;20474;-70
2023/08/05 03:21:15;;;;;;;8.10;5.35;;;15.00;99.90;;;;;;5134183;27;20029;-71
2023/08/05 03:23:40;;;;;;;9.68;5.85;;;15.10;99.90;;;;;;5134173;27;20051;-71
2023/08/05 03:26:06;;;;;;;11.32;5.93;;;15.10;99.90;;;;;;5133088;27;20023;-70
2023/08/05 03:28:31;;;;;;;9.63;5.90;;;15.10;99.90;;;;;;5114799;27;20491;-71
2023/08/05 03:30:57;;;;;;;7.50;5.30;;;15.10;99.90;;;;;;5113211;28;20107;-70
2023/08/05 03:33:23;;;;;;;12.75;5.85;;;15.20;99.90;;;;;;5113887;28;20027;-70
2023/08/05 03:35:48;;;;;;;8.32;5.25;;;15.20;99.90;;;;;;5113398;28;20054;-70
2023/08/05 03:38:15;;;;;;;8.98;5.22;;;15.20;99.90;;;;;;5113449;28;20376;-71
2023/08/05 03:40:40;;;;;;;9.57;7.20;;;15.20;99.90;;;;;;5113737;28;20036;-71
2023/08/05 03:43:06;;;;;;;9.15;5.32;;;15.30;99.90;;;;;;5112822;28;20034;-72
2023/08/05 03:45:32;;;;;;;7.97;5.63;;;15.30;99.90;;;;;;5113629;28;20024;-72
2023/08/05 03:47:57;;;;;;;13.48;6.40;;;15.20;99.90;;;;;;5112991;28;20096;-70
2023/08/05 03:50:23;;;;;;;8.80;5.80;;;15.30;99.90;;;;;;5113538;28;20058;-71
2023/08/05 03:52:49;;;;;;;8.40;5.53;;;15.30;99.90;;;;;;5113719;28;20040;-71
2023/08/05 03:55:15;;;;;;;9.70;5.60;;;15.30;99.90;;;;;;5112491;28;20555;-70
2023/08/05 03:57:41;;;;;;;10.10;5.60;;;15.30;99.90;;;;;;5113436;28;20030;-71
2023/08/05 04:00:11;;;;;;;12.27;6.00;;;15.30;99.90;;;;;;5112533;28;20024;-72
2023/08/05 04:02:37;;;;;;;9.30;5.78;;;15.30;99.90;;;;;;5113717;28;20019;-72
2023/08/05 04:05:06;;;;;;;9.77;5.90;;;15.30;99.90;;;;;;5112523;28;20036;-71
2023/08/05 04:07:31;;;;;;;10.23;6.05;;;15.30;99.90;;;;;;5113170;28;20068;-72
2023/08/05 04:09:57;;;;;;;8.60;6.07;;;15.30;99.90;;;;;;5094240;28;20028;-71
2023/08/05 04:12:23;;;;;;;8.50;5.78;;;15.30;99.90;;;;;;5113790;28;20059;-71
2023/08/05 04:14:52;;;;;;;6.70;5.10;;;15.30;99.90;;;;;;5113237;28;20085;-71
2023/08/05 04:17:19;;;;;;;8.55;6.45;;;15.30;99.90;;;;;;5113373;28;20028;-72
2023/08/05 04:19:46;;;;;;;7.15;5.78;;;15.30;99.90;;;;;;5114777;28;20082;-71
2023/08/05 04:22:12;;;;;;;6.90;4.80;;;15.30;99.90;;;;;;5115429;28;20020;-71
2023/08/05 04:24:39;;;;;;;8.25;5.78;;;15.30;99.90;;;;;;5115467;28;20057;-71
2023/08/05 04:27:05;;;;;;;7.35;5.50;;;15.30;99.90;;;;;;5126128;27;20047;-72
2023/08/05 04:29:30;;;;;;;12.68;6.70;;;15.20;99.90;;;;;;5141721;27;20030;-72
2023/08/05 04:31:57;;;;;;;9.98;5.75;;;15.30;99.90;;;;;;5121074;28;20515;-70
2023/08/05 04:34:22;;;;;;;7.97;6.45;;;15.30;99.90;;;;;;5133614;27;20031;-72
2023/08/05 04:36:50;;;;;;;8.98;6.13;;;15.20;99.90;;;;;;5135121;27;20046;-72
2023/08/05 04:39:17;;;;;;;8.50;5.75;;;15.30;99.90;;;;;;5132650;27;20019;-71
2023/08/05 04:41:44;;;;;;;6.97;6.15;;;15.30;99.90;;;;;;5132767;27;20375;-71
2023/08/05 04:44:09;;;;;;;12.65;6.40;;;15.30;99.90;;;;;;5132487;27;20063;-71
2023/08/05 04:46:35;;;;;;;6.88;5.40;;;15.30;99.90;;;;;;5133157;27;20034;-71
2023/08/05 04:49:00;;;;;;;10.10;6.10;;;15.30;99.90;;;;;;5132404;28;20031;-72
2023/08/05 04:51:26;;;;;;;8.43;5.18;;;15.40;99.90;;;;;;5132888;28;20019;-71
2023/08/05 04:53:52;;;;;;;7.40;6.47;;;15.40;99.90;;;;;;5133112;28;20033;-71
2023/08/05 04:56:24;;;;;;;7.38;5.55;;;15.30;99.90;;;;;;5132454;28;20023;-71
2023/08/05 04:58:49;;;;;;;10.80;6.57;;;15.40;99.90;;;;;;5132820;28;20428;-71
2023/08/05 05:01:15;;;;;;;9.52;7.05;;;15.40;99.90;;;;;;5132366;28;20095;-71
2023/08/05 05:03:40;;;;;;;7.97;6.43;;;15.40;99.90;;;;;;5132777;28;20380;-71
2023/08/05 05:06:06;;;;;;;7.75;5.57;;;15.40;99.90;;;;;;5132111;28;20106;-71
2023/08/05 05:08:33;;;;;;;9.25;6.28;;;15.40;99.90;;;;;;5132911;28;20023;-71
2023/08/05 05:10:58;;;;;;;9.65;6.15;;;15.40;99.90;;;;;;5132099;28;20024;-72
2023/08/05 05:13:24;;;;;;;6.28;4.55;;;15.40;99.90;;;;;;5132860;28;20031;-71
2023/08/05 05:15:52;;;;;;;10.02;5.43;;;15.40;99.90;;;;;;5133682;28;20068;-71
2023/08/05 05:18:19;;;;;;;5.00;4.47;;;15.40;99.90;;;;;;5132004;28;20803;-70
2023/08/05 05:20:53;;;;;;;5.60;4.45;;;15.40;99.90;;;;;;5132690;28;20110;-71
2023/08/05 05:23:19;;;;;;;6.45;5.43;;;15.40;99.90;;;;;;5132034;28;20023;-71
2023/08/05 05:25:45;;;;;;;10.73;6.50;;;15.40;99.90;;;;;;5132942;28;20035;-71
2023/08/05 05:28:10;;;;;;;8.13;5.53;;;15.50;99.90;;;;;;5114629;28;20079;-72
2023/08/05 05:30:36;;;;;;;6.78;5.20;;;15.50;99.90;;;;;;5112515;28;20026;-71
2023/08/05 05:33:02;;;;;;;10.85;6.03;;;15.60;99.90;;;;;;5111549;28;20058;-71
2023/08/05 05:35:30;;;;;;;7.20;5.32;;;15.60;99.90;;;;;;5112059;28;20020;-71
2023/08/05 05:37:56;;;;;;;8.32;5.60;;;15.60;99.90;;;;;;5115037;28;20035;-71
2023/08/05 05:40:21;;;;;;;8.00;5.63;;;15.70;99.90;;;;;;5115588;28;20023;-69
2023/08/05 05:42:50;;;;;;;8.50;5.32;;;15.70;99.90;;;;;;5117021;28;20024;-71
2023/08/05 05:45:17;;;;;;;9.32;4.97;;;15.70;99.90;;;;;;5116378;28;20048;-71
2023/08/05 05:47:44;;;;;;;7.15;4.45;;;15.70;99.90;;;;;;5118217;28;20053;-72
2023/08/05 05:50:10;;;;;;;16.08;6.43;;;15.70;99.90;;;;;;5129245;28;20039;-71
2023/08/05 05:52:36;;;;;;;10.02;5.18;;;15.80;99.90;;;;;;5133407;28;20040;-71
2023/08/05 05:55:03;;;;;;;7.50;5.28;;;15.80;99.90;;;;;;5130530;28;20048;-72
2023/08/05 05:57:28;;;;;;;10.00;5.50;;;15.90;99.90;;;;;;5122480;28;20024;-71
2023/08/05 05:59:55;;;;;;;9.85;6.00;;;15.90;99.90;;;;;;5119552;28;20027;-72
2023/08/05 06:02:21;;;;;;;6.68;5.15;;;15.90;99.90;;;;;;5122083;28;20114;-72
2023/08/05 06:04:47;;;;;;;5.55;4.80;;;15.90;99.90;;;;;;5119302;28;20089;-71
2023/08/05 06:07:13;;;;;;;8.02;5.30;;;15.90;99.90;;;;;;5116768;28;20079;-72
2023/08/05 06:09:39;;;;;;;5.55;4.57;;;16.00;99.90;;;;;;5116329;28;20399;-72
2023/08/05 06:12:05;;;;;;;10.13;5.07;;;16.10;99.90;;;;;;5115698;28;20024;-71
2023/08/05 06:14:31;;;;;;;7.45;4.75;;;16.20;99.90;;;;;;5115549;28;20027;-71
2023/08/05 06:16:56;;;;;;;7.95;5.25;;;16.20;99.90;;;;;;5115736;28;20345;-72
2023/08/05 06:19:22;;;;;;;10.27;4.55;;;16.40;99.90;;;;;;5113564;28;20024;-71
2023/08/05 06:21:48;;;;;;;4.75;3.65;;;16.50;99.90;;;;;;5115503;28;20027;-72
2023/08/05 06:24:13;;;;;;;5.78;4.47;;;16.70;99.90;;;;;;5114691;28;20043;-71
2023/08/05 06:26:39;;;;;;;6.63;4.25;;;16.90;99.90;;;;;;5118158;27;20499;-71
2023/08/05 06:29:05;;;;;;;6.45;4.38;;;17.10;99.90;;;;;;5134892;27;20027;-71
2023/08/05 06:31:30;;;;;;;7.28;4.05;;;17.20;99.90;;;;;;5136123;27;20455;-71
2023/08/05 06:33:56;;;;;;;4.65;3.67;;;17.30;99.90;;;;;;5135677;27;20361;-72
2023/08/05 06:36:22;;;;;;;7.32;3.58;;;17.40;99.90;;;;;;5135052;27;20015;-71
2023/08/05 06:38:48;;;;;;;10.52;4.60;;;17.50;99.90;;;;;;5135485;27;20084;-72
2023/08/05 06:41:13;;;;;;;7.03;3.97;;;17.60;99.90;;;;;;5134681;27;20059;-71
2023/08/05 06:43:39;;;;;;;6.00;4.10;;;17.70;99.90;;;;;;5135258;27;20459;-73
2023/08/05 06:46:04;;;;;;;8.00;4.22;;;17.70;99.90;;;;;;5134405;27;20062;-71
2023/08/05 06:48:31;;;;;;;5.75;4.30;;;17.90;99.90;;;;;;5134977;27;20019;-71
2023/08/05 06:50:56;;;;;;;7.63;4.03;;;17.90;99.90;;;;;;5135267;27;20345;-72
2023/08/05 06:53:22;;;;;;;5.20;3.60;;;17.90;99.90;;;;;;5134455;27;20448;-71
2023/08/05 06:55:47;;;;;;;8.45;3.92;;;18.00;99.90;;;;;;5134847;27;20049;-70
2023/08/05 06:58:13;;;;;;;4.72;4.00;;;18.00;99.90;;;;;;5134229;27;20023;-71
2023/08/05 07:00:39;;;;;;;4.15;3.65;;;18.10;99.90;;;;;;5135224;27;20019;-71
2023/08/05 07:03:04;;;;;;;6.18;4.00;;;18.10;99.90;;;;;;5134442;27;20055;-70
2023/08/05 07:05:30;;;;;;;5.70;3.50;;;18.10;99.90;;;;;;5134702;27;20035;-71
2023/08/05 07:07:55;;;;;;;4.82;3.90;;;18.10;99.90;;;;;;5134841;27;20034;-72
2023/08/05 07:10:21;;;;;;;8.85;4.35;;;18.20;99.90;;;;;;5134037;27;20091;-71
2023/08/05 07:12:47;;;;;;;5.20;4.10;;;18.20;99.90;;;;;;5134587;27;20080;-72
2023/08/05 07:15:12;;;;;;;5.40;4.00;;;18.10;99.90;;;;;;5134314;27;20031;-71
2023/08/05 07:17:38;;;;;;;6.07;3.60;;;18.00;99.90;;;;;;5134621;27;20023;-71
2023/08/05 07:20:05;;;;;;;6.65;4.03;;;17.90;99.90;;;;;;5134272;27;20023;-70
2023/08/05 07:22:31;;;;;;;5.00;3.60;;;17.80;99.90;;;;;;5134477;27;20098;-71
2023/08/05 07:24:57;;;;;;;4.53;3.30;;;17.80;99.90;;;;;;5134256;27;20125;-71
2023/08/05 07:27:22;;;;;;;4.32;3.30;;;17.90;99.90;;;;;;5123235;27;20046;-71
2023/08/05 07:29:48;;;;;;;4.60;3.65;;;18.10;99.90;;;;;;5113926;28;20015;-71
2023/08/05 07:32:14;;;;;;;6.95;3.65;;;18.30;99.90;;;;;;5112607;28;20024;-71
2023/08/05 07:34:40;;;;;;;7.38;3.97;;;18.40;99.90;;;;;;5113886;28;20032;-71
2023/08/05 07:37:05;;;;;;;5.80;3.53;;;18.60;99.90;;;;;;5113176;28;20046;-71
2023/08/05 07:39:34;;;;;;;6.55;3.63;;;18.70;99.90;;;;;;5113908;28;20024;-71
2023/08/05 07:42:03;;;;;;;5.28;3.38;;;18.70;99.90;;;;;;5113586;28;20032;-71
2023/08/05 07:44:33;;;;;;;3.75;3.25;;;18.80;99.90;;;;;;5113003;28;20045;-71
2023/08/05 07:46:59;;;;;;;4.75;3.22;;;18.80;99.90;;;;;;5113421;28;20032;-71
2023/08/05 07:49:26;;;;;;;4.68;3.35;;;18.80;99.90;;;;;;5112592;28;20054;-72
2023/08/05 07:51:53;;;;;;;4.07;3.17;;;18.80;99.90;;;;;;5113365;28;20380;-71
2023/08/05 07:54:20;;;;;;;4.93;3.97;;;18.90;99.90;;;;;;5112285;28;20135;-71
2023/08/05 07:56:46;;;;;;;6.28;3.55;;;19.00;99.90;;;;;;5113556;28;20152;-71
2023/08/05 07:59:12;;;;;;;5.72;3.67;;;19.10;99.90;;;;;;5111534;28;20044;-70
2023/08/05 08:01:42;;;;;;;13.90;4.07;;;19.30;99.90;;;;;;5113079;28;20460;-71
2023/08/05 08:04:12;;;;;;;4.00;3.17;;;19.50;99.90;;;;;;5112601;28;20039;-70
2023/08/05 08:06:38;;;;;;;4.75;3.10;;;19.60;99.90;;;;;;5113190;28;20601;-71
2023/08/05 08:09:04;;;;;;;5.25;3.70;;;19.80;99.90;;;;;;5112968;28;20034;-71
2023/08/05 08:11:30;;;;;;;4.57;2.60;;;19.80;99.90;;;;;;5112566;28;20024;-71
2023/08/05 08:13:55;;;;;;;4.90;3.50;;;19.80;99.90;;;;;;5112961;28;20402;-71
2023/08/05 08:16:21;;;;;;;4.68;3.20;;;19.80;99.90;;;;;;5112501;28;20034;-70
2023/08/05 08:18:46;;;;;;;4.00;2.97;;;19.80;99.90;;;;;;5113017;28;20111;-70
2023/08/05 08:21:12;;;;;;;5.07;3.55;;;19.80;99.90;;;;;;5112058;28;20376;-71
2023/08/05 08:23:38;;;;;;;3.70;2.83;;;19.90;99.90;;;;;;5112799;28;20070;-71
2023/08/05 08:26:03;;;;;;;3.92;3.30;;;20.00;99.90;;;;;;5113231;28;20026;-71
2023/08/05 08:28:29;;;;;;;3.28;2.97;;;20.10;99.90;;;;;;5130112;27;20868;-71
2023/08/05 08:30:57;;;;;;;4.47;3.17;;;20.10;99.90;;;;;;5132836;27;20075;-71
2023/08/05 08:33:24;;;;;;;3.50;2.50;;;20.10;99.90;;;;;;5132360;27;20040;-70
2023/08/05 08:35:50;;;;;;;5.38;2.95;;;20.00;99.90;;;;;;5132980;27;20532;-71
2023/08/05 08:38:17;;;;;;;4.13;3.17;;;19.80;99.90;;;;;;5132474;27;20031;-71
2023/08/05 08:40:50;;;;;;;5.65;3.72;;;19.80;99.90;;;;;;5133261;27;20043;-71
2023/08/05 08:43:20;;;;;;;5.82;3.45;;;19.90;99.90;;;;;;5132382;27;20063;-70
2023/08/05 08:45:55;;;;;;;;;;;20.10;99.90;;;;;;5133634;27;20114;-71
2023/08/05 08:48:21;;;;;;;4.97;3.45;;;20.10;99.90;;;;;;5132494;27;19954;-70
2023/08/05 08:50:48;;;;;;;7.05;3.15;;;20.10;99.90;;;;;;5133213;28;20104;-71
2023/08/05 08:53:14;;;;;;;3.70;2.60;;;20.10;99.90;;;;;;5132057;28;20028;-70
2023/08/05 08:55:43;;;;;;;7.57;3.58;;;20.20;99.90;;;;;;5132906;28;20031;-71
2023/08/05 08:58:10;;;;;;;5.57;2.93;;;20.60;99.90;;;;;;5132606;28;20031;-71
2023/08/05 09:00:37;;;;;;;6.65;3.05;;;20.80;99.90;;;;;;5133544;28;20128;-71
2023/08/05 09:03:04;;;;;;;4.03;2.63;;;20.90;99.90;;;;;;5132716;28;20023;-71
2023/08/05 09:06:05;;;;;;;3.50;2.70;;;21.00;99.90;;;;;;5131826;28;20620;-71
2023/08/05 09:08:33;;;;;;;5.60;2.80;;;21.10;99.90;;;;;;5085870;28;20501;-72
2023/08/05 09:11:00;;;;;;;6.70;2.80;;;21.10;99.90;;;;;;5134393;27;20023;-72
2023/08/05 09:13:25;;;;;;;4.00;2.88;;;21.00;99.90;;;;;;5136061;27;20106;-71
2023/08/05 09:15:51;;;;;;;4.70;2.60;;;20.80;99.90;;;;;;5136888;27;20058;-71
2023/08/05 09:18:17;;;;;;;3.08;2.75;;;20.70;99.90;;;;;;5136029;27;20050;-71
2023/08/05 09:20:43;;;;;;;5.25;3.05;;;20.80;99.90;;;;;;5136869;27;20077;-72
2023/08/05 09:23:10;;;;;;;2.80;1.90;;;20.90;99.90;;;;;;5136963;27;20019;-71
2023/08/05 09:25:41;;;;;;;4.80;3.28;;;21.00;99.90;;;;;;5136321;27;20039;-71
2023/08/05 09:28:07;;;;;;;3.83;2.80;;;20.90;99.90;;;;;;5120348;27;20055;-72
2023/08/05 09:30:34;;;;;;;4.28;2.45;;;20.90;99.90;;;;;;5115588;28;20020;-71
2023/08/05 09:33:00;;;;;;;2.15;1.90;;;21.10;99.90;;;;;;5116078;28;20028;-71
2023/08/05 09:35:26;;;;;;;4.65;2.30;;;21.30;99.90;;;;;;5114958;28;20095;-71
2023/08/05 09:37:53;;;;;;;3.38;2.55;;;21.60;99.90;;;;;;5115888;28;20464;-71
2023/08/05 09:40:22;;;;;;;3.25;2.30;;;22.00;99.90;;;;;;5115018;28;20077;-70
2023/08/05 09:42:50;;;;;;;3.37;2.63;;;22.20;99.90;;;;;;5115688;28;20494;-71
2023/08/05 09:45:17;;;;;;;3.33;2.13;;;22.30;99.90;;;;;;5114984;28;20388;-71
2023/08/05 09:47:43;;;;;;;3.70;2.15;;;22.30;99.90;;;;;;5115479;28;20569;-71
2023/08/05 09:50:13;;;;;;;4.50;2.40;;;22.40;99.90;;;;;;5115330;28;20365;-71
2023/08/05 09:52:39;;;;;;;6.22;2.20;;;22.50;99.90;;;;;;5115565;28;20019;-71
2023/08/05 09:55:16;;;;;;;2.47;1.95;;;22.40;99.90;;;;;;5115479;28;20123;-71
2023/08/05 09:57:42;;;;;;;4.85;2.40;;;22.40;99.90;;;;;;5115673;28;20032;-71
2023/08/05 10:00:11;;;;;;;4.00;2.30;;;22.50;99.90;;;;;;5115547;28;20490;-71
2023/08/05 10:02:39;;;;;;;2.60;1.98;;;22.60;99.90;;;;;;5114946;28;20074;-71
2023/08/05 10:05:05;;;;;;;1.88;1.50;;;22.60;99.90;;;;;;5115448;28;20059;-72
2023/08/05 10:07:31;;;;;;;2.22;2.00;;;22.60;99.90;;;;;;5114635;28;20429;-71
2023/08/05 10:09:58;;;;;;;5.00;2.42;;;22.60;99.90;;;;;;5115591;28;20023;-72
2023/08/05 10:12:52;;;;;;;3.35;2.13;;;22.70;99.90;;;;;;5114259;28;20383;-72
2023/08/05 10:15:24;;;;;;;3.00;1.70;;;22.50;99.90;;;;;;5113722;28;20067;-69
2023/08/05 10:17:49;;;;;;;2.63;1.67;;;22.40;99.90;;;;;;5115412;28;20076;-70
2023/08/05 10:20:16;;;;;;;3.00;1.90;;;22.30;99.90;;;;;;5114766;28;20031;-71
2023/08/05 10:23:03;;;;;;;2.92;1.88;;;22.20;99.90;;;;;;5114642;28;20439;-71
2023/08/05 10:25:42;;;;;;;3.25;1.85;;;22.00;99.90;;;;;;5114422;28;20036;-71
2023/08/05 10:28:24;;;;;;;3.22;1.88;;;21.90;99.90;;;;;;5130330;27;20487;-71
2023/08/05 10:30:50;;;;;;;1.85;1.33;;;21.80;99.90;;;;;;5135647;27;20023;-70
2023/08/05 10:33:16;;;;;;;2.40;1.85;;;21.70;99.90;;;;;;5135139;27;20526;-70
2023/08/05 10:35:43;;;;;;;2.47;1.77;;;21.50;99.90;;;;;;5135204;27;20027;-72
2023/08/05 10:38:23;;;;;;;2.70;1.58;;;21.30;99.90;;;;;;5135474;27;20019;-71
2023/08/05 10:40:51;;;;;;;2.35;1.92;;;21.30;99.90;;;;;;5135344;27;20459;-71
2023/08/05 10:43:35;;;;;;;2.10;1.67;;;21.30;99.90;;;;;;5134896;27;20028;-70
2023/08/05 10:46:07;;;;;;;3.20;1.70;;;21.40;99.90;;;;;;5135341;27;20046;-71
2023/08/05 10:48:48;;;;;;;2.65;1.85;;;21.50;99.90;;;;;;5134327;27;20094;-72
2023/08/05 10:51:17;;;;;;;2.83;1.90;;;21.50;99.90;;;;;;5135120;27;20031;-72
2023/08/05 10:53:58;;;;;;;3.47;1.92;;;21.60;99.90;;;;;;5135430;27;20035;-72
2023/08/05 10:56:32;;;;;;;3.17;1.85;;;21.80;99.90;;;;;;5134099;27;20081;-72
2023/08/05 10:59:02;;;;;;;4.43;1.73;;;21.90;99.90;;;;;;5135018;27;20027;-72
2023/08/05 11:01:56;;;;;;;2.55;1.27;;;21.90;99.90;;;;;;5134176;27;20468;-70
2023/08/05 11:04:29;;;;;;;1.98;1.50;;;21.90;99.90;;;;;;5133999;27;20150;-70
2023/08/05 11:06:55;;;;;;;3.35;1.40;;;22.00;99.90;;;;;;5135024;27;20030;-71
2023/08/05 11:09:22;;;;;;;1.48;1.33;;;22.10;99.90;;;;;;5133980;27;20032;-71
2023/08/05 11:11:48;;;;;;;1.58;1.30;;;22.30;99.90;;;;;;5134908;27;20529;-72
2023/08/05 11:14:16;;;;;;;2.20;1.60;;;22.50;99.90;;;;;;5134479;27;20027;-71
2023/08/05 11:16:46;;;;;;;2.13;1.25;;;22.80;99.90;;;;;;5134350;27;20051;-71
2023/08/05 11:19:12;;;;;;;;;;;22.90;99.90;;;;;;5134892;27;20475;-71
2023/08/05 11:21:42;;;;;;;1.95;1.70;;;22.90;99.90;;;;;;5134008;27;19903;-72
2023/08/05 11:24:15;;;;;;;4.25;1.65;;;22.90;99.90;;;;;;5134738;27;20043;-71
2023/08/05 11:26:40;;;;;;;2.55;1.30;;;23.00;99.90;;;;;;5130059;27;20080;-71
2023/08/05 11:29:07;;;;;;;2.67;1.75;;;23.10;99.90;;;;;;5113953;28;20031;-71
2023/08/05 11:31:33;;;;;;;8.48;1.80;;;23.00;99.80;;;;;;5112994;28;20070;-71
2023/08/05 11:33:58;;;;;;;2.35;1.77;;;22.80;99.70;;;;;;5112878;28;20059;-70
2023/08/05 11:36:25;;;;;;;2.47;1.70;;;22.80;99.90;;;;;;5112823;28;20016;-70
2023/08/05 11:38:51;;;;;;;4.72;2.00;;;22.80;99.90;;;;;;5113297;28;20038;-72
2023/08/05 11:41:17;;;;;;;1.90;1.80;;;22.90;99.90;;;;;;5113463;28;20027;-71
2023/08/05 11:43:43;;;;;;;1.60;1.50;;;23.00;99.90;;;;;;5113642;28;20027;-72
2023/08/05 11:46:24;;;;;;;2.10;1.45;;;23.20;99.80;;;;;;5115404;28;20028;-71
2023/08/05 11:49:05;;;;;;;2.85;1.67;;;;;;;;;;5114387;28;20035;-72
2023/08/05 11:52:06;;;;;;;3.30;1.70;;;23.70;98.60;;;;;;5113150;28;20020;-71
2023/08/05 11:54:32;;;;;;;2.30;1.60;;;23.80;99.20;;;;;;5111657;28;20032;-71
2023/08/05 11:56:58;;;;;;;2.72;1.52;;;24.00;98.00;;;;;;5113386;28;20364;-72
2023/08/05 11:59:37;;;;;;;1.88;1.50;;;24.10;98.10;;;;;;5112520;28;20028;-71
2023/08/05 12:02:04;;;;;;;3.33;1.70;;;24.20;97.60;;;;;;5113368;28;20024;-70
2023/08/05 12:04:29;;;;;;;4.65;1.85;;;24.20;97.50;;;;;;5112110;28;20035;-72
2023/08/05 12:06:55;;;;;;;2.58;2.00;;;24.30;97.40;;;;;;5113231;28;20369;-72
2023/08/05 12:09:21;;;;;;;2.38;1.90;;;24.70;97.30;;;;;;5094490;28;20023;-71
2023/08/05 12:11:46;;;;;;;2.58;1.65;;;25.00;96.90;;;;;;5113009;28;20510;-72
2023/08/05 12:14:12;;;;;;;5.22;1.77;;;25.20;96.20;;;;;;5112792;28;20055;-72
2023/08/05 12:16:38;;;;;;;2.53;1.95;;;25.10;95.80;;;;;;5112251;28;20024;-72
2023/08/05 12:19:04;;;;;;;2.20;1.80;;;25.10;96.00;;;;;;5112323;28;20028;-72
2023/08/05 12:21:30;;;;;;;1.80;1.70;;;;;;;;;;5112097;28;20032;-72
2023/08/05 12:23:56;;;;;;;3.40;1.80;;;;;;;;;;5112798;28;20035;-71
2023/08/05 12:26:28;;;;;;;2.28;1.60;;;;;;;;;;5112673;27;20024;-71
2023/08/05 12:28:54;;;;;;;2.45;1.58;;;;;;;;;;5133612;27;20034;-72
2023/08/05 12:31:20;;;;;;;3.17;1.75;;;;;;;;;;5133287;27;20027;-72
2023/08/05 12:33:46;;;;;;;3.22;1.90;;;;;;;;;;5132377;27;20127;-73
2023/08/05 12:36:12;;;;;;;3.22;1.60;;;;;;;;;;5133196;27;20472;-71
2023/08/05 12:38:38;;;;;;;2.95;2.00;;;;;;;;;;5132495;27;20110;-72
2023/08/05 12:41:04;;;;;;;1.70;1.60;;;;;;;;;;5114658;27;20046;-73
2023/08/05 12:43:30;;;;;;;3.30;1.95;;;;;;;;;;5132236;27;20049;-71
2023/08/05 12:45:56;;;;;;;2.97;1.80;;;;;;;;;;5132913;27;20456;-72
2023/08/05 12:48:24;;;;;;;3.00;1.85;;;;;;;;;;5133123;27;20417;-72
2023/08/05 12:50:51;;;;;;;2.67;1.83;;;;;;;;;;5132846;27;20019;-72
2023/08/05 12:53:17;;;;;;;2.38;1.98;;;;;;;;;;5133072;28;20479;-72
2023/08/05 12:55:43;;;;;;;5.80;3.92;;;;;;;;;;5132071;28;20035;-71
2023/08/05 12:58:09;;;;;;;2.38;2.13;;;;;;;;;;5133410;28;20026;-72
2023/08/05 13:00:35;;;;;;;3.45;3.10;;;;;;;;;;5132915;28;20437;-70
2023/08/05 13:03:01;;;;;;;4.32;2.13;;;;;;;;;;5134909;28;20370;-72